sensor_id;sensor_type;location;lat;lon;timestamp;P1;durP1;ratioP1;P2;durP2;ratioP2
537;SDS011;254;48.524;8.926;2023-02-16T00:00:04;9.2;;;7.6;;
537;SDS011;254;48.524;8.926;2023-02-16T00:01:08;10.6;;;8.0;;
537;SDS011;254;48.524;8.926;2023-02-16T00:02:02;10.9;;;8.5;;
537;SDS011;254;48.524;8.926;2023-02-16T00:03:03;12.2;;;8.7;;
537;SDS011;254;48.524;8.926;2023-02-16T00:04:04;10.7;;;8.3;;
537;SDS011;254;48.524;8.926;2023-02-16T00:05:05;8.3;;;7.2;;
537;SDS011;254;48.524;8.926;2023-02-16T00:06:03;9.8;;;7.5;;
537;SDS011;254;48.524;8.926;2023-02-16T00:07:02;8.3;;;7.1;;
537;SDS011;254;48.524;8.926;2023-02-16T00:08:02;9.5;;;7.0;;
537;SDS011;254;48.524;8.926;2023-02-16T00:09:02;8.6;;;7.4;;
537;SDS011;254;48.524;8.926;2023-02-16T00:10:02;8.9;;;6.9;;
537;SDS011;254;48.524;8.926;2023-02-16T00:11:03;9.3;;;7.0;;
537;SDS011;254;48.524;8.926;2023-02-16T00:12:04;9.9;;;7.2;;
537;SDS011;254;48.524;8.926;2023-02-16T00:13:08;18.2;;;12.0;;
537;SDS011;254;48.524;8.926;2023-02-16T00:14:02;47.3;;;26.2;;
537;SDS011;254;48.524;8.926;2023-02-16T00:15:08;23.3;;;16.0;;
537;SDS011;254;48.524;8.926;2023-02-16T00:16:02;21.5;;;15.2;;
537;SDS011;254;48.524;8.926;2023-02-16T00:17:02;19.6;;;14.4;;
537;SDS011;254;48.524;8.926;2023-02-16T00:18:02;25.3;;;15.7;;
537;SDS011;254;48.524;8.926;2023-02-16T00:19:07;18.7;;;13.1;;
537;SDS011;254;48.524;8.926;2023-02-16T00:20:04;16.8;;;11.7;;
537;SDS011;254;48.524;8.926;2023-02-16T00:21:02;14.4;;;9.6;;
537;SDS011;254;48.524;8.926;2023-02-16T00:22:02;13.1;;;8.8;;
537;SDS011;254;48.524;8.926;2023-02-16T00:23:01;11.7;;;9.0;;
537;SDS011;254;48.524;8.926;2023-02-16T00:24:02;18.2;;;14.4;;
537;SDS011;254;48.524;8.926;2023-02-16T00:25:03;21.3;;;16.2;;
537;SDS011;254;48.524;8.926;2023-02-16T00:26:03;17.3;;;14.0;;
537;SDS011;254;48.524;8.926;2023-02-16T00:27:08;16.8;;;13.3;;
537;SDS011;254;48.524;8.926;2023-02-16T00:28:02;16.5;;;12.6;;
537;SDS011;254;48.524;8.926;2023-02-16T00:29:02;15.9;;;11.7;;
537;SDS011;254;48.524;8.926;2023-02-16T00:30:05;14.9;;;11.5;;
537;SDS011;254;48.524;8.926;2023-02-16T00:31:03;12.6;;;10.3;;
537;SDS011;254;48.524;8.926;2023-02-16T00:32:03;13.2;;;11.0;;
537;SDS011;254;48.524;8.926;2023-02-16T00:33:03;17.6;;;12.5;;
537;SDS011;254;48.524;8.926;2023-02-16T00:34:06;19.9;;;15.6;;
537;SDS011;254;48.524;8.926;2023-02-16T00:35:04;22.0;;;14.4;;
537;SDS011;254;48.524;8.926;2023-02-16T00:36:02;13.4;;;9.8;;
537;SDS011;254;48.524;8.926;2023-02-16T00:37:03;13.7;;;10.0;;
537;SDS011;254;48.524;8.926;2023-02-16T00:38:02;10.1;;;8.5;;
537;SDS011;254;48.524;8.926;2023-02-16T00:39:02;11.6;;;9.5;;
537;SDS011;254;48.524;8.926;2023-02-16T00:40:03;10.0;;;8.5;;
537;SDS011;254;48.524;8.926;2023-02-16T00:41:02;12.9;;;9.6;;
537;SDS011;254;48.524;8.926;2023-02-16T00:42:04;9.9;;;8.4;;
537;SDS011;254;48.524;8.926;2023-02-16T00:43:02;15.4;;;11.2;;
537;SDS011;254;48.524;8.926;2023-02-16T00:44:02;15.0;;;10.7;;
537;SDS011;254;48.524;8.926;2023-02-16T00:45:03;16.2;;;11.8;;
537;SDS011;254;48.524;8.926;2023-02-16T00:46:01;13.1;;;10.4;;
537;SDS011;254;48.524;8.926;2023-02-16T00:47:03;13.5;;;10.1;;
537;SDS011;254;48.524;8.926;2023-02-16T00:48:03;13.4;;;10.6;;
537;SDS011;254;48.524;8.926;2023-02-16T00:49:02;14.0;;;10.2;;
537;SDS011;254;48.524;8.926;2023-02-16T00:50:02;11.6;;;9.7;;
537;SDS011;254;48.524;8.926;2023-02-16T00:51:02;12.1;;;10.1;;
537;SDS011;254;48.524;8.926;2023-02-16T00:52:04;13.0;;;10.2;;
537;SDS011;254;48.524;8.926;2023-02-16T00:53:02;11.9;;;9.8;;
537;SDS011;254;48.524;8.926;2023-02-16T00:54:02;12.3;;;10.6;;
537;SDS011;254;48.524;8.926;2023-02-16T00:55:03;12.9;;;10.1;;
537;SDS011;254;48.524;8.926;2023-02-16T00:56:03;15.8;;;10.1;;
537;SDS011;254;48.524;8.926;2023-02-16T00:57:02;12.3;;;10.1;;
537;SDS011;254;48.524;8.926;2023-02-16T00:58:04;12.9;;;10.2;;
537;SDS011;254;48.524;8.926;2023-02-16T00:59:02;14.5;;;10.3;;
537;SDS011;254;48.524;8.926;2023-02-16T01:00:04;11.7;;;9.8;;
537;SDS011;254;48.524;8.926;2023-02-16T01:01:05;13.0;;;10.1;;
537;SDS011;254;48.524;8.926;2023-02-16T01:02:01;12.6;;;10.1;;
537;SDS011;254;48.524;8.926;2023-02-16T01:03:04;12.8;;;10.0;;
537;SDS011;254;48.524;8.926;2023-02-16T01:04:04;11.2;;;9.5;;
537;SDS011;254;48.524;8.926;2023-02-16T01:05:02;10.6;;;9.0;;
537;SDS011;254;48.524;8.926;2023-02-16T01:06:02;13.9;;;10.2;;
537;SDS011;254;48.524;8.926;2023-02-16T01:07:05;13.7;;;10.2;;
537;SDS011;254;48.524;8.926;2023-02-16T01:08:04;10.6;;;9.0;;
537;SDS011;254;48.524;8.926;2023-02-16T01:09:10;11.4;;;10.0;;
537;SDS011;254;48.524;8.926;2023-02-16T01:10:03;12.5;;;9.5;;
537;SDS011;254;48.524;8.926;2023-02-16T01:11:03;12.7;;;9.8;;
537;SDS011;254;48.524;8.926;2023-02-16T01:12:03;14.0;;;9.6;;
537;SDS011;254;48.524;8.926;2023-02-16T01:13:02;11.4;;;9.1;;
537;SDS011;254;48.524;8.926;2023-02-16T01:14:02;10.5;;;8.8;;
537;SDS011;254;48.524;8.926;2023-02-16T01:15:02;12.8;;;9.1;;
537;SDS011;254;48.524;8.926;2023-02-16T01:16:01;12.5;;;9.6;;
537;SDS011;254;48.524;8.926;2023-02-16T01:17:02;13.5;;;9.2;;
537;SDS011;254;48.524;8.926;2023-02-16T01:18:03;13.5;;;9.0;;
537;SDS011;254;48.524;8.926;2023-02-16T01:19:01;13.9;;;8.9;;
537;SDS011;254;48.524;8.926;2023-02-16T01:20:02;11.0;;;8.8;;
537;SDS011;254;48.524;8.926;2023-02-16T01:21:02;10.5;;;9.1;;
537;SDS011;254;48.524;8.926;2023-02-16T01:22:02;11.3;;;9.4;;
537;SDS011;254;48.524;8.926;2023-02-16T01:23:02;10.7;;;8.9;;
537;SDS011;254;48.524;8.926;2023-02-16T01:24:02;11.0;;;8.6;;
537;SDS011;254;48.524;8.926;2023-02-16T01:25:04;13.6;;;9.9;;
537;SDS011;254;48.524;8.926;2023-02-16T01:26:03;12.4;;;9.6;;
537;SDS011;254;48.524;8.926;2023-02-16T01:27:02;13.6;;;9.9;;
537;SDS011;254;48.524;8.926;2023-02-16T01:28:02;11.6;;;9.1;;
537;SDS011;254;48.524;8.926;2023-02-16T01:29:03;13.8;;;9.8;;
537;SDS011;254;48.524;8.926;2023-02-16T01:30:02;14.3;;;9.8;;
537;SDS011;254;48.524;8.926;2023-02-16T01:31:02;12.6;;;9.5;;
537;SDS011;254;48.524;8.926;2023-02-16T01:32:01;11.2;;;9.1;;
537;SDS011;254;48.524;8.926;2023-02-16T01:33:02;11.9;;;9.8;;
537;SDS011;254;48.524;8.926;2023-02-16T01:34:03;11.8;;;9.3;;
537;SDS011;254;48.524;8.926;2023-02-16T01:35:03;11.1;;;8.9;;
537;SDS011;254;48.524;8.926;2023-02-16T01:36:02;11.5;;;9.2;;
537;SDS011;254;48.524;8.926;2023-02-16T01:37:03;11.5;;;8.7;;
537;SDS011;254;48.524;8.926;2023-02-16T01:38:02;11.1;;;8.9;;
537;SDS011;254;48.524;8.926;2023-02-16T01:39:02;12.2;;;8.7;;
537;SDS011;254;48.524;8.926;2023-02-16T01:40:03;12.7;;;8.5;;
537;SDS011;254;48.524;8.926;2023-02-16T01:41:04;10.5;;;8.6;;
537;SDS011;254;48.524;8.926;2023-02-16T01:42:05;12.3;;;9.5;;
537;SDS011;254;48.524;8.926;2023-02-16T01:43:03;11.4;;;9.2;;
537;SDS011;254;48.524;8.926;2023-02-16T01:44:03;10.3;;;8.4;;
537;SDS011;254;48.524;8.926;2023-02-16T01:45:03;11.5;;;9.1;;
537;SDS011;254;48.524;8.926;2023-02-16T01:46:02;12.1;;;9.1;;
537;SDS011;254;48.524;8.926;2023-02-16T01:47:03;13.8;;;9.1;;
537;SDS011;254;48.524;8.926;2023-02-16T01:48:03;10.1;;;8.6;;
537;SDS011;254;48.524;8.926;2023-02-16T01:49:02;11.4;;;8.7;;
537;SDS011;254;48.524;8.926;2023-02-16T01:50:11;11.4;;;8.5;;
537;SDS011;254;48.524;8.926;2023-02-16T01:51:04;11.6;;;9.1;;
537;SDS011;254;48.524;8.926;2023-02-16T01:52:04;11.0;;;8.5;;
537;SDS011;254;48.524;8.926;2023-02-16T01:53:03;11.6;;;9.3;;
537;SDS011;254;48.524;8.926;2023-02-16T01:54:04;12.6;;;9.2;;
537;SDS011;254;48.524;8.926;2023-02-16T01:55:03;11.8;;;8.7;;
537;SDS011;254;48.524;8.926;2023-02-16T01:56:03;13.9;;;9.9;;
537;SDS011;254;48.524;8.926;2023-02-16T01:57:03;11.4;;;9.1;;
537;SDS011;254;48.524;8.926;2023-02-16T01:58:04;13.2;;;9.8;;
537;SDS011;254;48.524;8.926;2023-02-16T01:59:03;13.7;;;9.6;;
537;SDS011;254;48.524;8.926;2023-02-16T02:00:20;12.4;;;9.8;;
537;SDS011;254;48.524;8.926;2023-02-16T02:01:36;11.4;;;9.0;;
537;SDS011;254;48.524;8.926;2023-02-16T02:02:03;10.3;;;8.7;;
537;SDS011;254;48.524;8.926;2023-02-16T02:03:02;11.8;;;9.2;;
537;SDS011;254;48.524;8.926;2023-02-16T02:04:13;12.9;;;9.5;;
537;SDS011;254;48.524;8.926;2023-02-16T02:05:05;14.2;;;9.9;;
537;SDS011;254;48.524;8.926;2023-02-16T02:06:02;11.6;;;9.1;;
537;SDS011;254;48.524;8.926;2023-02-16T02:07:02;12.2;;;9.7;;
537;SDS011;254;48.524;8.926;2023-02-16T02:08:06;12.1;;;8.4;;
537;SDS011;254;48.524;8.926;2023-02-16T02:09:03;14.5;;;9.6;;
537;SDS011;254;48.524;8.926;2023-02-16T02:10:04;11.6;;;10.0;;
537;SDS011;254;48.524;8.926;2023-02-16T02:11:04;12.1;;;9.1;;
537;SDS011;254;48.524;8.926;2023-02-16T02:12:04;11.8;;;10.0;;
537;SDS011;254;48.524;8.926;2023-02-16T02:13:03;11.6;;;9.5;;
537;SDS011;254;48.524;8.926;2023-02-16T02:14:04;12.3;;;9.8;;
537;SDS011;254;48.524;8.926;2023-02-16T02:15:03;12.1;;;9.5;;
537;SDS011;254;48.524;8.926;2023-02-16T02:16:03;12.4;;;9.8;;
537;SDS011;254;48.524;8.926;2023-02-16T02:17:02;10.0;;;8.8;;
537;SDS011;254;48.524;8.926;2023-02-16T02:18:02;12.0;;;8.8;;
537;SDS011;254;48.524;8.926;2023-02-16T02:19:02;12.2;;;9.0;;
537;SDS011;254;48.524;8.926;2023-02-16T02:20:05;11.1;;;8.8;;
537;SDS011;254;48.524;8.926;2023-02-16T02:21:08;11.0;;;8.8;;
537;SDS011;254;48.524;8.926;2023-02-16T02:22:11;12.5;;;9.5;;
537;SDS011;254;48.524;8.926;2023-02-16T02:23:12;11.2;;;9.6;;
537;SDS011;254;48.524;8.926;2023-02-16T02:24:20;12.4;;;9.7;;
537;SDS011;254;48.524;8.926;2023-02-16T02:25:05;11.1;;;9.6;;
537;SDS011;254;48.524;8.926;2023-02-16T02:27:06;11.6;;;9.2;;
537;SDS011;254;48.524;8.926;2023-02-16T02:28:04;10.7;;;9.0;;
537;SDS011;254;48.524;8.926;2023-02-16T02:29:05;11.6;;;9.1;;
537;SDS011;254;48.524;8.926;2023-02-16T02:30:06;11.8;;;9.2;;
537;SDS011;254;48.524;8.926;2023-02-16T02:31:04;11.5;;;8.7;;
537;SDS011;254;48.524;8.926;2023-02-16T02:32:05;13.0;;;9.1;;
537;SDS011;254;48.524;8.926;2023-02-16T02:33:06;10.7;;;8.9;;
537;SDS011;254;48.524;8.926;2023-02-16T02:34:03;9.8;;;8.3;;
537;SDS011;254;48.524;8.926;2023-02-16T02:35:07;12.7;;;9.2;;
537;SDS011;254;48.524;8.926;2023-02-16T02:36:05;11.4;;;8.8;;
537;SDS011;254;48.524;8.926;2023-02-16T02:37:05;10.9;;;9.0;;
537;SDS011;254;48.524;8.926;2023-02-16T02:38:04;12.8;;;8.9;;
537;SDS011;254;48.524;8.926;2023-02-16T02:39:04;10.2;;;8.2;;
537;SDS011;254;48.524;8.926;2023-02-16T02:40:04;12.0;;;9.0;;
537;SDS011;254;48.524;8.926;2023-02-16T02:41:03;10.0;;;8.7;;
537;SDS011;254;48.524;8.926;2023-02-16T02:42:04;10.0;;;7.9;;
537;SDS011;254;48.524;8.926;2023-02-16T02:43:06;14.3;;;8.6;;
537;SDS011;254;48.524;8.926;2023-02-16T02:44:04;10.6;;;8.3;;
537;SDS011;254;48.524;8.926;2023-02-16T02:45:03;10.8;;;8.3;;
537;SDS011;254;48.524;8.926;2023-02-16T02:46:04;11.8;;;8.6;;
537;SDS011;254;48.524;8.926;2023-02-16T02:47:02;12.1;;;8.6;;
537;SDS011;254;48.524;8.926;2023-02-16T02:48:03;13.1;;;9.3;;
537;SDS011;254;48.524;8.926;2023-02-16T02:49:02;13.4;;;9.2;;
537;SDS011;254;48.524;8.926;2023-02-16T02:50:02;12.2;;;8.7;;
537;SDS011;254;48.524;8.926;2023-02-16T02:51:07;11.7;;;9.0;;
537;SDS011;254;48.524;8.926;2023-02-16T02:52:02;9.6;;;8.6;;
537;SDS011;254;48.524;8.926;2023-02-16T02:53:02;9.9;;;8.7;;
537;SDS011;254;48.524;8.926;2023-02-16T02:54:04;12.1;;;9.5;;
537;SDS011;254;48.524;8.926;2023-02-16T02:55:02;10.7;;;8.3;;
537;SDS011;254;48.524;8.926;2023-02-16T02:56:03;10.4;;;8.4;;
537;SDS011;254;48.524;8.926;2023-02-16T02:57:03;10.2;;;8.7;;
537;SDS011;254;48.524;8.926;2023-02-16T02:58:02;11.7;;;8.4;;
537;SDS011;254;48.524;8.926;2023-02-16T02:59:05;10.0;;;8.3;;
537;SDS011;254;48.524;8.926;2023-02-16T03:00:03;11.3;;;8.7;;
537;SDS011;254;48.524;8.926;2023-02-16T03:01:02;11.1;;;8.7;;
537;SDS011;254;48.524;8.926;2023-02-16T03:02:02;12.2;;;9.1;;
537;SDS011;254;48.524;8.926;2023-02-16T03:03:03;12.3;;;8.9;;
537;SDS011;254;48.524;8.926;2023-02-16T03:04:03;11.0;;;9.0;;
537;SDS011;254;48.524;8.926;2023-02-16T03:05:02;10.6;;;9.0;;
537;SDS011;254;48.524;8.926;2023-02-16T03:06:03;12.0;;;8.4;;
537;SDS011;254;48.524;8.926;2023-02-16T03:07:02;11.3;;;8.4;;
537;SDS011;254;48.524;8.926;2023-02-16T03:08:04;11.3;;;9.1;;
537;SDS011;254;48.524;8.926;2023-02-16T03:09:03;10.6;;;8.8;;
537;SDS011;254;48.524;8.926;2023-02-16T03:10:03;11.4;;;8.6;;
537;SDS011;254;48.524;8.926;2023-02-16T03:11:03;11.0;;;8.3;;
537;SDS011;254;48.524;8.926;2023-02-16T03:12:02;10.8;;;8.9;;
537;SDS011;254;48.524;8.926;2023-02-16T03:13:03;11.5;;;8.6;;
537;SDS011;254;48.524;8.926;2023-02-16T03:14:03;10.5;;;8.5;;
537;SDS011;254;48.524;8.926;2023-02-16T03:15:03;12.9;;;8.8;;
537;SDS011;254;48.524;8.926;2023-02-16T03:16:03;11.7;;;9.1;;
537;SDS011;254;48.524;8.926;2023-02-16T03:17:03;13.0;;;9.5;;
537;SDS011;254;48.524;8.926;2023-02-16T03:18:03;11.4;;;9.0;;
537;SDS011;254;48.524;8.926;2023-02-16T03:19:02;10.8;;;8.4;;
537;SDS011;254;48.524;8.926;2023-02-16T03:20:03;10.4;;;8.6;;
537;SDS011;254;48.524;8.926;2023-02-16T03:21:02;12.0;;;8.6;;
537;SDS011;254;48.524;8.926;2023-02-16T03:22:02;10.7;;;8.7;;
537;SDS011;254;48.524;8.926;2023-02-16T03:23:03;9.9;;;8.3;;
537;SDS011;254;48.524;8.926;2023-02-16T03:24:04;10.9;;;8.5;;
537;SDS011;254;48.524;8.926;2023-02-16T03:25:02;10.6;;;9.2;;
537;SDS011;254;48.524;8.926;2023-02-16T03:26:02;10.5;;;8.3;;
537;SDS011;254;48.524;8.926;2023-02-16T03:27:02;12.2;;;8.8;;
537;SDS011;254;48.524;8.926;2023-02-16T03:28:03;10.3;;;8.5;;
537;SDS011;254;48.524;8.926;2023-02-16T03:29:03;11.0;;;8.4;;
537;SDS011;254;48.524;8.926;2023-02-16T03:30:02;10.6;;;8.5;;
537;SDS011;254;48.524;8.926;2023-02-16T03:31:02;11.2;;;8.8;;
537;SDS011;254;48.524;8.926;2023-02-16T03:32:03;9.7;;;8.5;;
537;SDS011;254;48.524;8.926;2023-02-16T03:33:02;9.9;;;8.0;;
537;SDS011;254;48.524;8.926;2023-02-16T03:34:02;13.0;;;9.2;;
537;SDS011;254;48.524;8.926;2023-02-16T03:35:03;11.7;;;8.5;;
537;SDS011;254;48.524;8.926;2023-02-16T03:36:02;10.6;;;9.2;;
537;SDS011;254;48.524;8.926;2023-02-16T03:37:03;10.9;;;9.2;;
537;SDS011;254;48.524;8.926;2023-02-16T03:38:03;14.1;;;10.9;;
537;SDS011;254;48.524;8.926;2023-02-16T03:39:03;18.8;;;12.8;;
537;SDS011;254;48.524;8.926;2023-02-16T03:40:03;11.4;;;9.2;;
537;SDS011;254;48.524;8.926;2023-02-16T03:41:02;12.5;;;9.0;;
537;SDS011;254;48.524;8.926;2023-02-16T03:42:02;12.2;;;8.8;;
537;SDS011;254;48.524;8.926;2023-02-16T03:43:02;11.5;;;9.3;;
537;SDS011;254;48.524;8.926;2023-02-16T03:44:02;11.3;;;8.7;;
537;SDS011;254;48.524;8.926;2023-02-16T03:45:03;12.2;;;9.4;;
537;SDS011;254;48.524;8.926;2023-02-16T03:46:02;11.0;;;8.4;;
537;SDS011;254;48.524;8.926;2023-02-16T03:47:02;11.7;;;9.2;;
537;SDS011;254;48.524;8.926;2023-02-16T03:48:03;10.4;;;8.7;;
537;SDS011;254;48.524;8.926;2023-02-16T03:49:01;11.2;;;8.7;;
537;SDS011;254;48.524;8.926;2023-02-16T03:50:02;9.5;;;8.5;;
537;SDS011;254;48.524;8.926;2023-02-16T03:51:02;10.5;;;8.6;;
537;SDS011;254;48.524;8.926;2023-02-16T03:52:02;9.9;;;8.4;;
537;SDS011;254;48.524;8.926;2023-02-16T03:53:03;11.6;;;9.3;;
537;SDS011;254;48.524;8.926;2023-02-16T03:54:02;11.2;;;9.2;;
537;SDS011;254;48.524;8.926;2023-02-16T03:55:02;9.9;;;8.9;;
537;SDS011;254;48.524;8.926;2023-02-16T03:56:02;10.7;;;9.1;;
537;SDS011;254;48.524;8.926;2023-02-16T03:57:02;13.2;;;9.9;;
537;SDS011;254;48.524;8.926;2023-02-16T03:58:02;11.4;;;9.8;;
537;SDS011;254;48.524;8.926;2023-02-16T03:59:03;12.0;;;9.1;;
537;SDS011;254;48.524;8.926;2023-02-16T04:00:02;12.2;;;10.1;;
537;SDS011;254;48.524;8.926;2023-02-16T04:01:02;14.7;;;9.6;;
537;SDS011;254;48.524;8.926;2023-02-16T04:02:02;12.3;;;9.6;;
537;SDS011;254;48.524;8.926;2023-02-16T04:03:03;12.2;;;9.4;;
537;SDS011;254;48.524;8.926;2023-02-16T04:04:02;11.7;;;10.5;;
537;SDS011;254;48.524;8.926;2023-02-16T04:05:03;12.3;;;9.9;;
537;SDS011;254;48.524;8.926;2023-02-16T04:06:02;14.0;;;10.7;;
537;SDS011;254;48.524;8.926;2023-02-16T04:07:02;12.0;;;9.7;;
537;SDS011;254;48.524;8.926;2023-02-16T04:08:03;12.4;;;10.4;;
537;SDS011;254;48.524;8.926;2023-02-16T04:09:02;12.4;;;10.1;;
537;SDS011;254;48.524;8.926;2023-02-16T04:10:02;12.8;;;10.6;;
537;SDS011;254;48.524;8.926;2023-02-16T04:11:03;15.5;;;10.9;;
537;SDS011;254;48.524;8.926;2023-02-16T04:12:02;13.4;;;10.0;;
537;SDS011;254;48.524;8.926;2023-02-16T04:13:02;11.1;;;9.7;;
537;SDS011;254;48.524;8.926;2023-02-16T04:14:02;12.6;;;10.3;;
537;SDS011;254;48.524;8.926;2023-02-16T04:15:04;13.5;;;10.5;;
537;SDS011;254;48.524;8.926;2023-02-16T04:16:03;13.1;;;9.8;;
537;SDS011;254;48.524;8.926;2023-02-16T04:17:03;13.0;;;10.2;;
537;SDS011;254;48.524;8.926;2023-02-16T04:18:02;12.3;;;10.4;;
537;SDS011;254;48.524;8.926;2023-02-16T04:19:01;15.2;;;10.3;;
537;SDS011;254;48.524;8.926;2023-02-16T04:20:02;12.7;;;10.1;;
537;SDS011;254;48.524;8.926;2023-02-16T04:21:02;11.9;;;9.8;;
537;SDS011;254;48.524;8.926;2023-02-16T04:22:02;12.5;;;10.1;;
537;SDS011;254;48.524;8.926;2023-02-16T04:23:02;13.5;;;10.6;;
537;SDS011;254;48.524;8.926;2023-02-16T04:24:02;12.7;;;10.6;;
537;SDS011;254;48.524;8.926;2023-02-16T04:25:02;13.2;;;10.6;;
537;SDS011;254;48.524;8.926;2023-02-16T04:26:02;14.6;;;11.4;;
537;SDS011;254;48.524;8.926;2023-02-16T04:27:02;13.8;;;10.2;;
537;SDS011;254;48.524;8.926;2023-02-16T04:28:02;12.9;;;10.3;;
537;SDS011;254;48.524;8.926;2023-02-16T04:29:03;13.6;;;10.3;;
537;SDS011;254;48.524;8.926;2023-02-16T04:30:02;11.5;;;10.3;;
537;SDS011;254;48.524;8.926;2023-02-16T04:31:02;11.9;;;10.3;;
537;SDS011;254;48.524;8.926;2023-02-16T04:32:02;13.4;;;10.1;;
537;SDS011;254;48.524;8.926;2023-02-16T04:33:02;13.1;;;10.8;;
537;SDS011;254;48.524;8.926;2023-02-16T04:34:02;13.0;;;10.5;;
537;SDS011;254;48.524;8.926;2023-02-16T04:35:03;11.9;;;9.9;;
537;SDS011;254;48.524;8.926;2023-02-16T04:36:03;12.5;;;9.7;;
537;SDS011;254;48.524;8.926;2023-02-16T04:37:03;13.3;;;10.1;;
537;SDS011;254;48.524;8.926;2023-02-16T04:38:02;14.7;;;11.0;;
537;SDS011;254;48.524;8.926;2023-02-16T04:39:03;12.3;;;10.3;;
537;SDS011;254;48.524;8.926;2023-02-16T04:40:04;13.3;;;10.0;;
537;SDS011;254;48.524;8.926;2023-02-16T04:41:03;12.4;;;10.2;;
537;SDS011;254;48.524;8.926;2023-02-16T04:42:02;15.2;;;11.6;;
537;SDS011;254;48.524;8.926;2023-02-16T04:43:03;13.7;;;11.6;;
537;SDS011;254;48.524;8.926;2023-02-16T04:44:01;15.0;;;12.6;;
537;SDS011;254;48.524;8.926;2023-02-16T04:45:02;13.7;;;12.2;;
537;SDS011;254;48.524;8.926;2023-02-16T04:46:02;12.8;;;10.7;;
537;SDS011;254;48.524;8.926;2023-02-16T04:47:02;12.6;;;10.7;;
537;SDS011;254;48.524;8.926;2023-02-16T04:48:04;13.8;;;10.9;;
537;SDS011;254;48.524;8.926;2023-02-16T04:49:02;21.9;;;18.1;;
537;SDS011;254;48.524;8.926;2023-02-16T04:50:03;31.3;;;23.8;;
537;SDS011;254;48.524;8.926;2023-02-16T04:51:02;20.1;;;17.1;;
537;SDS011;254;48.524;8.926;2023-02-16T04:52:03;15.3;;;12.3;;
537;SDS011;254;48.524;8.926;2023-02-16T04:53:01;14.3;;;11.1;;
537;SDS011;254;48.524;8.926;2023-02-16T04:54:02;12.8;;;10.1;;
537;SDS011;254;48.524;8.926;2023-02-16T04:55:03;13.0;;;10.4;;
537;SDS011;254;48.524;8.926;2023-02-16T04:56:01;13.3;;;10.4;;
537;SDS011;254;48.524;8.926;2023-02-16T04:57:02;13.5;;;10.2;;
537;SDS011;254;48.524;8.926;2023-02-16T04:58:02;13.9;;;11.4;;
537;SDS011;254;48.524;8.926;2023-02-16T04:59:02;15.5;;;11.0;;
537;SDS011;254;48.524;8.926;2023-02-16T05:00:03;14.2;;;11.1;;
537;SDS011;254;48.524;8.926;2023-02-16T05:01:01;12.9;;;10.8;;
537;SDS011;254;48.524;8.926;2023-02-16T05:02:02;14.7;;;11.0;;
537;SDS011;254;48.524;8.926;2023-02-16T05:03:02;13.3;;;11.2;;
537;SDS011;254;48.524;8.926;2023-02-16T05:04:02;12.3;;;10.3;;
537;SDS011;254;48.524;8.926;2023-02-16T05:05:03;12.8;;;10.9;;
537;SDS011;254;48.524;8.926;2023-02-16T05:06:03;16.1;;;10.8;;
537;SDS011;254;48.524;8.926;2023-02-16T05:07:01;14.3;;;9.9;;
537;SDS011;254;48.524;8.926;2023-02-16T05:08:02;13.3;;;10.4;;
537;SDS011;254;48.524;8.926;2023-02-16T05:09:03;13.0;;;10.1;;
537;SDS011;254;48.524;8.926;2023-02-16T05:10:03;12.8;;;10.4;;
537;SDS011;254;48.524;8.926;2023-02-16T05:11:03;13.9;;;10.0;;
537;SDS011;254;48.524;8.926;2023-02-16T05:12:01;13.0;;;10.6;;
537;SDS011;254;48.524;8.926;2023-02-16T05:13:02;13.5;;;11.0;;
537;SDS011;254;48.524;8.926;2023-02-16T05:14:02;13.2;;;10.3;;
537;SDS011;254;48.524;8.926;2023-02-16T05:15:03;12.8;;;11.0;;
537;SDS011;254;48.524;8.926;2023-02-16T05:16:02;12.2;;;10.3;;
537;SDS011;254;48.524;8.926;2023-02-16T05:17:02;13.0;;;10.0;;
537;SDS011;254;48.524;8.926;2023-02-16T05:18:02;11.6;;;9.9;;
537;SDS011;254;48.524;8.926;2023-02-16T05:19:02;11.2;;;10.0;;
537;SDS011;254;48.524;8.926;2023-02-16T05:20:03;12.4;;;10.2;;
537;SDS011;254;48.524;8.926;2023-02-16T05:21:02;12.4;;;9.8;;
537;SDS011;254;48.524;8.926;2023-02-16T05:22:03;12.3;;;10.1;;
537;SDS011;254;48.524;8.926;2023-02-16T05:23:01;11.9;;;10.5;;
537;SDS011;254;48.524;8.926;2023-02-16T05:24:03;14.9;;;11.1;;
537;SDS011;254;48.524;8.926;2023-02-16T05:25:02;11.5;;;10.3;;
537;SDS011;254;48.524;8.926;2023-02-16T05:26:01;13.9;;;10.5;;
537;SDS011;254;48.524;8.926;2023-02-16T05:27:02;12.9;;;10.5;;
537;SDS011;254;48.524;8.926;2023-02-16T05:28:03;14.9;;;11.2;;
537;SDS011;254;48.524;8.926;2023-02-16T05:29:03;13.3;;;10.8;;
537;SDS011;254;48.524;8.926;2023-02-16T05:30:02;12.6;;;10.8;;
537;SDS011;254;48.524;8.926;2023-02-16T05:31:02;13.1;;;10.6;;
537;SDS011;254;48.524;8.926;2023-02-16T05:32:02;13.9;;;10.9;;
537;SDS011;254;48.524;8.926;2023-02-16T05:33:02;13.8;;;11.9;;
537;SDS011;254;48.524;8.926;2023-02-16T05:34:02;13.4;;;10.9;;
537;SDS011;254;48.524;8.926;2023-02-16T05:35:02;14.5;;;11.8;;
537;SDS011;254;48.524;8.926;2023-02-16T05:36:02;13.6;;;11.1;;
537;SDS011;254;48.524;8.926;2023-02-16T05:37:03;13.5;;;11.1;;
537;SDS011;254;48.524;8.926;2023-02-16T05:38:02;12.9;;;10.7;;
537;SDS011;254;48.524;8.926;2023-02-16T05:39:02;15.0;;;11.6;;
537;SDS011;254;48.524;8.926;2023-02-16T05:40:03;13.1;;;10.8;;
537;SDS011;254;48.524;8.926;2023-02-16T05:41:02;14.4;;;11.1;;
537;SDS011;254;48.524;8.926;2023-02-16T05:42:02;14.7;;;11.1;;
537;SDS011;254;48.524;8.926;2023-02-16T05:43:02;15.2;;;12.1;;
537;SDS011;254;48.524;8.926;2023-02-16T05:44:04;15.1;;;11.3;;
537;SDS011;254;48.524;8.926;2023-02-16T05:45:03;14.9;;;11.5;;
537;SDS011;254;48.524;8.926;2023-02-16T05:46:05;14.4;;;11.9;;
537;SDS011;254;48.524;8.926;2023-02-16T05:47:03;14.6;;;12.3;;
537;SDS011;254;48.524;8.926;2023-02-16T05:48:02;15.8;;;12.3;;
537;SDS011;254;48.524;8.926;2023-02-16T05:49:03;18.2;;;12.2;;
537;SDS011;254;48.524;8.926;2023-02-16T05:50:03;16.8;;;13.0;;
537;SDS011;254;48.524;8.926;2023-02-16T05:51:03;16.5;;;12.5;;
537;SDS011;254;48.524;8.926;2023-02-16T05:52:02;16.9;;;12.0;;
537;SDS011;254;48.524;8.926;2023-02-16T05:53:02;17.0;;;13.0;;
537;SDS011;254;48.524;8.926;2023-02-16T05:54:01;15.9;;;12.1;;
537;SDS011;254;48.524;8.926;2023-02-16T05:55:02;15.5;;;12.4;;
537;SDS011;254;48.524;8.926;2023-02-16T05:56:02;14.3;;;12.5;;
537;SDS011;254;48.524;8.926;2023-02-16T05:57:02;18.5;;;12.4;;
537;SDS011;254;48.524;8.926;2023-02-16T05:58:03;15.0;;;11.7;;
537;SDS011;254;48.524;8.926;2023-02-16T05:59:02;14.7;;;11.5;;
537;SDS011;254;48.524;8.926;2023-02-16T06:00:03;14.3;;;11.3;;
537;SDS011;254;48.524;8.926;2023-02-16T06:01:02;15.7;;;11.0;;
537;SDS011;254;48.524;8.926;2023-02-16T06:02:02;13.8;;;11.4;;
537;SDS011;254;48.524;8.926;2023-02-16T06:03:03;15.7;;;11.5;;
537;SDS011;254;48.524;8.926;2023-02-16T06:04:03;13.5;;;11.7;;
537;SDS011;254;48.524;8.926;2023-02-16T06:05:02;13.9;;;11.8;;
537;SDS011;254;48.524;8.926;2023-02-16T06:06:02;14.1;;;11.0;;
537;SDS011;254;48.524;8.926;2023-02-16T06:07:03;14.2;;;11.3;;
537;SDS011;254;48.524;8.926;2023-02-16T06:08:02;14.8;;;11.8;;
537;SDS011;254;48.524;8.926;2023-02-16T06:09:02;13.1;;;11.0;;
537;SDS011;254;48.524;8.926;2023-02-16T06:10:04;14.6;;;11.2;;
537;SDS011;254;48.524;8.926;2023-02-16T06:11:02;16.8;;;12.2;;
537;SDS011;254;48.524;8.926;2023-02-16T06:12:03;15.1;;;11.8;;
537;SDS011;254;48.524;8.926;2023-02-16T06:13:01;14.3;;;11.2;;
537;SDS011;254;48.524;8.926;2023-02-16T06:14:03;15.0;;;11.6;;
537;SDS011;254;48.524;8.926;2023-02-16T06:15:02;16.4;;;12.2;;
537;SDS011;254;48.524;8.926;2023-02-16T06:16:03;14.6;;;11.3;;
537;SDS011;254;48.524;8.926;2023-02-16T06:17:03;13.5;;;10.7;;
537;SDS011;254;48.524;8.926;2023-02-16T06:18:02;15.5;;;11.7;;
537;SDS011;254;48.524;8.926;2023-02-16T06:19:02;14.2;;;12.0;;
537;SDS011;254;48.524;8.926;2023-02-16T06:20:04;14.2;;;11.7;;
537;SDS011;254;48.524;8.926;2023-02-16T06:21:03;14.4;;;11.5;;
537;SDS011;254;48.524;8.926;2023-02-16T06:22:02;15.6;;;12.5;;
537;SDS011;254;48.524;8.926;2023-02-16T06:23:02;21.0;;;18.4;;
537;SDS011;254;48.524;8.926;2023-02-16T06:24:03;17.2;;;14.7;;
537;SDS011;254;48.524;8.926;2023-02-16T06:25:02;18.9;;;15.5;;
537;SDS011;254;48.524;8.926;2023-02-16T06:26:03;19.4;;;16.3;;
537;SDS011;254;48.524;8.926;2023-02-16T06:27:01;19.0;;;16.2;;
537;SDS011;254;48.524;8.926;2023-02-16T06:28:02;17.9;;;14.3;;
537;SDS011;254;48.524;8.926;2023-02-16T06:29:02;18.4;;;14.5;;